createdAt,value
2023-03-23T15:58:17.338Z,54.39
2023-03-23T16:00:48.419Z,54.28
2023-03-23T16:03:25.597Z,54.43
2023-03-23T16:05:55.250Z,54.27
2023-03-23T16:08:24.487Z,54.30
2023-03-23T16:10:53.924Z,54.10
2023-03-23T16:13:23.452Z,54.27
2023-03-23T16:15:52.937Z,54.25
2023-03-23T16:18:24.813Z,54.04
2023-03-23T16:20:54.314Z,54.05
2023-03-23T16:23:23.937Z,53.94
2023-03-23T16:25:53.278Z,53.86
2023-03-23T16:28:22.830Z,53.90
2023-03-23T16:30:52.457Z,53.75
2023-03-23T16:33:23.700Z,53.76
2023-03-23T16:35:53.092Z,53.77
2023-03-23T16:38:22.560Z,53.44
2023-03-23T16:40:52.192Z,53.89
2023-03-23T16:43:22.676Z,53.56
2023-03-23T16:45:51.975Z,53.91
2023-03-23T16:48:23.510Z,53.84
2023-03-23T16:50:56.144Z,53.80
2023-03-23T16:53:26.560Z,53.95
2023-03-23T16:55:58.023Z,53.96
2023-03-23T16:58:27.687Z,53.91
2023-03-23T17:00:57.256Z,53.74
2023-03-23T17:03:26.666Z,53.79
2023-03-23T17:05:58.041Z,53.90
2023-03-23T17:08:27.325Z,53.95
2023-03-23T17:10:56.600Z,53.85
2023-03-23T17:13:28.296Z,53.80
2023-03-23T17:15:58.481Z,53.79
2023-03-23T17:18:29.559Z,53.46
2023-03-23T17:21:00.404Z,53.59
2023-03-23T17:23:29.789Z,53.59
2023-03-23T17:25:59.040Z,54.09
2023-03-23T17:28:28.340Z,53.62
2023-03-23T17:30:57.669Z,53.56
2023-03-23T17:33:26.898Z,53.72
2023-03-23T17:35:56.363Z,53.37
2023-03-23T17:38:27.549Z,53.47
2023-03-23T17:41:00.265Z,53.61
2023-03-23T17:43:29.592Z,53.74
2023-03-23T17:45:59.056Z,53.59
2023-03-23T17:48:28.561Z,53.56
2023-03-23T17:50:59.598Z,53.35
2023-03-23T17:53:31.978Z,54.42
2023-03-23T17:56:01.599Z,55.13
2023-03-23T17:58:30.915Z,56.09
2023-03-23T18:01:00.566Z,58.54
2023-03-23T18:03:30.080Z,58.98
2023-03-23T18:06:02.017Z,58.09
2023-03-23T18:08:33.239Z,59.01
2023-03-23T18:11:03.141Z,59.51
2023-03-23T18:13:34.605Z,57.78
2023-03-23T18:16:05.651Z,57.69
2023-03-23T18:18:35.824Z,57.96
2023-03-23T18:21:08.229Z,58.09
2023-03-23T18:23:49.310Z,58.53
2023-03-23T18:26:22.620Z,58.64
2023-03-23T18:28:53.261Z,58.74
2023-03-23T18:31:22.717Z,58.75
2023-03-23T18:33:54.889Z,59.34
2023-03-23T18:36:25.944Z,59.55
2023-03-23T18:38:59.266Z,59.77
2023-03-23T18:41:28.740Z,59.78
2023-03-23T18:43:58.081Z,60.10
2023-03-23T18:46:27.743Z,60.14
2023-03-23T18:48:57.230Z,60.53
2023-03-23T18:51:26.802Z,60.42
2023-03-23T18:53:57.589Z,61.02
2023-03-23T18:56:27.393Z,61.32
2023-03-23T18:58:56.717Z,61.49
2023-03-23T19:01:26.046Z,61.41
2023-03-23T19:03:55.588Z,61.44
2023-03-23T19:06:27.846Z,61.51
2023-03-23T19:08:59.280Z,61.50
2023-03-23T19:11:29.010Z,61.98
2023-03-23T19:14:02.876Z,62.08
2023-03-23T19:16:34.784Z,62.33
2023-03-23T19:19:04.565Z,62.31
2023-03-23T19:21:34.293Z,62.70
2023-03-23T19:24:06.985Z,62.79
2023-03-23T19:26:38.540Z,62.96
2023-03-23T19:31:40.866Z,63.44
2023-03-23T19:34:10.689Z,63.29
2023-03-23T19:36:40.190Z,63.25
2023-03-23T19:39:10.980Z,63.42
2023-03-23T19:41:41.764Z,63.17
2023-03-23T19:44:11.121Z,63.14
2023-03-23T19:46:40.358Z,63.33
2023-03-23T19:49:10.228Z,63.16
2023-03-23T19:51:39.799Z,63.27
2023-03-23T19:54:10.590Z,63.44
2023-03-23T19:56:39.846Z,63.15
2023-03-23T19:59:10.938Z,63.00
2023-03-23T20:01:41.336Z,63.28
2023-03-23T20:04:12.435Z,63.25
2023-03-23T20:06:41.884Z,63.27
2023-03-23T20:09:13.658Z,63.33
2023-03-23T20:11:43.369Z,63.55
2023-03-23T20:14:12.498Z,63.70
2023-03-23T20:16:42.677Z,63.50
2023-03-23T20:19:11.899Z,63.60
2023-03-23T20:21:41.146Z,63.57
2023-03-23T20:24:10.353Z,63.61
2023-03-23T20:26:43.468Z,63.64
2023-03-23T20:29:12.910Z,63.54
2023-03-23T20:31:43.648Z,63.65
2023-03-23T20:34:14.380Z,63.50
2023-03-23T20:36:45.687Z,63.34
2023-03-23T20:39:16.778Z,63.64
2023-03-23T20:41:48.755Z,63.63
2023-03-23T20:44:18.491Z,63.55
2023-03-23T20:46:49.334Z,63.48
2023-03-23T20:49:19.412Z,63.34
2023-03-23T20:51:49.204Z,63.54
2023-03-23T20:54:20.127Z,63.48
2023-03-23T20:56:51.237Z,63.61
2023-03-23T20:59:21.368Z,63.60
2023-03-23T21:01:51.796Z,63.33
2023-03-23T21:04:23.466Z,63.65
2023-03-23T21:06:52.846Z,63.61
2023-03-23T21:09:22.563Z,63.64
2023-03-23T21:11:53.299Z,63.53
2023-03-23T21:14:23.954Z,63.54
2023-03-23T21:16:53.141Z,63.60
2023-03-23T21:19:22.590Z,63.63
2023-03-23T21:21:56.253Z,63.65
2023-03-23T21:24:28.584Z,63.48
2023-03-23T21:27:01.237Z,63.66
2023-03-23T21:29:31.586Z,63.48
2023-03-23T21:32:08.172Z,63.58
2023-03-23T21:34:38.543Z,63.52
2023-03-23T21:37:08.006Z,63.49
2023-03-23T21:39:37.305Z,63.47
2023-03-23T21:42:08.461Z,63.53
2023-03-23T21:44:39.572Z,63.46
2023-03-23T21:47:08.798Z,63.43
2023-03-23T21:49:40.467Z,63.65
2023-03-23T21:52:10.619Z,63.36
2023-03-23T21:54:41.632Z,63.52
2023-03-23T21:57:12.264Z,63.44
2023-03-23T21:59:41.476Z,63.88
2023-03-23T22:02:14.039Z,63.77
2023-03-23T22:04:43.424Z,63.95
2023-03-23T22:07:13.507Z,63.94
2023-03-23T22:09:45.424Z,64.06
2023-03-23T22:12:17.073Z,64.00
2023-03-23T22:14:46.804Z,64.15
2023-03-23T22:17:16.035Z,64.05
2023-03-23T22:19:45.271Z,64.09
2023-03-23T22:22:14.496Z,64.41
2023-03-23T22:24:43.722Z,64.39
2023-03-23T22:27:13.027Z,64.15
2023-03-23T22:29:43.815Z,64.35
2023-03-23T22:32:13.359Z,64.51
2023-03-23T22:34:43.215Z,64.58
2023-03-23T22:37:12.721Z,64.55
2023-03-23T22:39:42.020Z,64.63
2023-03-23T22:42:12.434Z,64.57
2023-03-23T22:44:44.215Z,64.51
2023-03-23T22:47:13.475Z,64.87
2023-03-23T22:49:42.777Z,64.86
2023-03-23T22:52:12.130Z,64.92
2023-03-23T22:54:41.521Z,64.75
2023-03-23T22:57:10.778Z,65.24
2023-03-23T22:59:40.033Z,65.10
2023-03-23T23:02:10.880Z,65.37
2023-03-23T23:04:40.068Z,65.16
2023-03-23T23:07:14.576Z,65.41
2023-03-23T23:09:43.935Z,65.53
2023-03-23T23:12:15.031Z,65.76
2023-03-23T23:14:45.238Z,65.94
2023-03-23T23:17:16.001Z,66.07
2023-03-23T23:19:45.427Z,66.06
2023-03-23T23:22:19.391Z,66.03
2023-03-23T23:24:49.070Z,66.29
2023-03-23T23:27:18.655Z,66.39
2023-03-23T23:29:48.104Z,66.48
2023-03-23T23:32:18.940Z,66.54
2023-03-23T23:34:49.002Z,66.39
2023-03-23T23:37:18.329Z,66.60
2023-03-23T23:39:47.566Z,66.87
2023-03-23T23:42:16.831Z,66.67
2023-03-23T23:44:46.882Z,66.95
2023-03-23T23:47:16.513Z,66.65
2023-03-23T23:49:47.365Z,66.73
2023-03-23T23:52:16.895Z,66.93
2023-03-23T23:54:49.040Z,66.96
2023-03-23T23:57:18.422Z,66.97
2023-03-23T23:59:47.726Z,66.94
